createdAt,value
2019-01-22T00:00:54.471Z,75.76
2019-01-22T00:15:51.535Z,77.91
2019-01-22T00:30:51.640Z,79.17
2019-01-22T00:45:51.390Z,80.57
2019-01-22T01:00:50.876Z,81.70
2019-01-22T01:15:51.354Z,81.94
2019-01-22T01:30:50.706Z,81.86
2019-01-22T01:45:51.085Z,80.29
2019-01-22T02:00:53.491Z,79.28
2019-01-22T04:15:53.608Z,79.68
2019-01-22T09:45:51.698Z,74.82
2019-01-22T10:00:50.999Z,72.37
2019-01-22T10:15:51.453Z,71.32
2019-01-22T10:30:51.399Z,71.53
2019-01-22T10:45:51.772Z,71.52
2019-01-22T11:00:50.275Z,71.19
2019-01-22T11:15:53.564Z,72.14
2019-01-22T11:30:51.475Z,73.10
2019-01-22T11:45:50.915Z,74.32
2019-01-22T12:00:57.424Z,73.97
2019-01-22T12:15:50.794Z,74.66
2019-01-22T12:30:50.716Z,74.97
2019-01-22T12:45:51.145Z,75.72
2019-01-22T13:00:50.927Z,75.64
2019-01-22T13:15:50.930Z,76.06
2019-01-22T13:30:50.847Z,76.51
2019-01-22T13:45:51.151Z,76.56
2019-01-22T14:15:51.190Z,77.40
2019-01-22T14:30:51.084Z,78.10
2019-01-22T14:45:51.612Z,78.63
2019-01-22T15:00:53.030Z,79.55
2019-01-22T15:15:51.283Z,79.20
2019-01-22T15:30:51.195Z,78.80
2019-01-22T15:45:50.686Z,79.20
2019-01-22T16:00:51.101Z,78.89
2019-01-22T16:15:51.451Z,80.77
2019-01-22T16:30:53.193Z,81.69
2019-01-22T16:45:51.180Z,82.82
2019-01-22T17:00:51.001Z,83.60
2019-01-22T17:15:51.347Z,84.72
2019-01-22T17:30:50.687Z,84.72
2019-01-22T17:45:54.169Z,84.95
2019-01-22T18:00:57.241Z,84.45
2019-01-22T18:15:55.792Z,84.92
2019-01-22T18:30:54.348Z,84.16
2019-01-22T18:45:51.282Z,84.46
2019-01-22T19:00:51.752Z,84.49
2019-01-22T19:15:53.309Z,84.89
2019-01-22T19:30:53.705Z,84.49
2019-01-22T19:45:55.226Z,84.05
2019-01-22T20:00:52.911Z,83.54
2019-01-22T20:15:53.428Z,81.86
2019-01-22T20:30:53.387Z,80.98
2019-01-22T20:45:52.764Z,81.05
2019-01-22T21:00:50.915Z,82.04
2019-01-22T21:15:50.707Z,80.90
2019-01-22T21:30:53.637Z,79.62
2019-01-22T21:45:50.955Z,78.49
2019-01-22T22:00:50.951Z,80.44
2019-01-22T22:15:51.592Z,80.44
2019-01-22T22:30:50.761Z,80.64
2019-01-22T22:45:51.133Z,80.77
2019-01-22T23:15:51.158Z,81.62
2019-01-22T23:30:50.947Z,80.59
2019-01-22T23:45:51.397Z,81.06
